createdAt,value
2019-04-28T00:01:01.050Z,100319.17
2019-04-28T00:03:31.981Z,100315.33
2019-04-28T00:06:02.475Z,100315.31
2019-04-28T00:08:32.940Z,100313.94
2019-04-28T00:11:03.479Z,100311.75
2019-04-28T00:13:33.949Z,100310.61
2019-04-28T00:16:06.106Z,100311.16
2019-04-28T00:18:36.897Z,100305.64
2019-04-28T00:21:10.856Z,100305.92
2019-04-28T00:23:42.668Z,100300.98
2019-04-28T00:26:14.669Z,100309.75
2019-04-28T00:28:45.165Z,100303.12
2019-04-28T00:31:15.685Z,100304.57
2019-04-28T00:33:46.423Z,100309.75
2019-04-28T00:36:16.834Z,100304.25
2019-04-28T00:38:47.310Z,100304.03
2019-04-28T00:41:17.740Z,100297.69
2019-04-28T00:43:48.239Z,100294.38
2019-04-28T00:46:21.076Z,100291.36
2019-04-28T00:48:51.639Z,100285.84
2019-04-28T00:51:22.195Z,100279.79
2019-04-28T00:53:52.717Z,100278.66
2019-04-28T00:56:23.220Z,100268.71
2019-04-28T00:58:53.826Z,100274.50
2019-04-28T01:01:42.627Z,100263.20
2019-04-28T01:04:13.158Z,100265.97
2019-04-28T01:06:43.696Z,100271.42
2019-04-28T01:09:14.172Z,100273.08
2019-04-28T01:11:44.623Z,100279.44
2019-04-28T01:14:15.137Z,100281.64
2019-04-28T01:16:51.547Z,100283.04
2019-04-28T01:19:30.149Z,100282.73
2019-04-28T01:22:05.136Z,100294.58
2019-04-28T01:24:35.616Z,100279.42
2019-04-28T01:27:07.597Z,100279.95
2019-04-28T01:29:37.976Z,100274.64
2019-04-28T01:32:16.440Z,100254.50
2019-04-28T01:34:46.870Z,100225.08
2019-04-28T01:37:17.319Z,100206.64
2019-04-28T01:39:49.514Z,100205.26
2019-04-28T01:42:20.438Z,100206.63
2019-04-28T01:44:50.762Z,100211.02
2019-04-28T01:47:21.239Z,100206.80
2019-04-28T01:49:51.671Z,100198.27
2019-04-28T01:52:22.145Z,100200.95
2019-04-28T01:54:52.683Z,100197.30
2019-04-28T01:57:23.140Z,100198.72
2019-04-28T01:59:53.601Z,100201.28
2019-04-28T02:02:24.107Z,100201.22
2019-04-28T02:04:54.554Z,100201.00
2019-04-28T02:07:25.399Z,100195.80
2019-04-28T02:09:55.843Z,100202.38
2019-04-28T02:12:26.309Z,100196.11
2019-04-28T02:14:56.801Z,100199.70
2019-04-28T02:17:27.266Z,100197.19
2019-04-28T02:20:00.676Z,100194.20
2019-04-28T02:22:33.494Z,100197.53
2019-04-28T02:25:04.705Z,100196.45
2019-04-28T02:27:35.270Z,100195.06
2019-04-28T02:30:11.479Z,100191.25
2019-04-28T02:32:41.298Z,100185.80
2019-04-28T02:35:11.772Z,100184.97
2019-04-28T02:37:42.379Z,100190.74
2019-04-28T02:40:12.917Z,100191.84
2019-04-28T02:42:43.549Z,100188.55
2019-04-28T02:45:16.929Z,100194.87
2019-04-28T02:47:47.826Z,100194.58
2019-04-28T02:50:33.166Z,100198.13
2019-04-28T02:53:23.282Z,100195.93
2019-04-28T02:55:53.720Z,100201.13
2019-04-28T02:58:24.189Z,100199.48
2019-04-28T03:01:06.699Z,100198.07
2019-04-28T03:03:26.908Z,100189.58
2019-04-28T03:05:57.347Z,100195.34
2019-04-28T03:08:30.471Z,100194.79
2019-04-28T03:11:00.969Z,100198.07
2019-04-28T03:13:31.663Z,100196.70
2019-04-28T03:16:02.229Z,100195.59
2019-04-28T03:18:32.698Z,100192.30
2019-04-28T03:21:04.399Z,100195.31
2019-04-28T03:23:35.192Z,100198.30
2019-04-28T03:26:11.222Z,100203.23
2019-04-28T03:28:43.439Z,100197.16
2019-04-28T03:31:59.051Z,100200.45
2019-04-28T03:34:03.968Z,100202.86
2019-04-28T03:36:33.422Z,100197.16
2019-04-28T03:39:06.532Z,100196.07
2019-04-28T03:41:36.981Z,100199.32
2019-04-28T03:44:07.475Z,100203.97
2019-04-28T03:46:42.196Z,100203.75
2019-04-28T03:49:14.258Z,100205.20
2019-04-28T03:51:44.710Z,100207.17
2019-04-28T03:54:15.182Z,100212.69
2019-04-28T03:56:45.697Z,100211.62
2019-04-28T03:59:16.165Z,100204.22
2019-04-28T04:01:56.511Z,100213.59
2019-04-28T04:04:21.175Z,100204.52
2019-04-28T04:06:51.008Z,100202.05
2019-04-28T04:09:24.194Z,100201.25
2019-04-28T04:12:11.210Z,100209.52
2019-04-28T04:14:50.761Z,100206.50
2019-04-28T04:17:30.504Z,100198.28
2019-04-28T04:20:01.798Z,100215.33
2019-04-28T04:22:32.390Z,100212.31
2019-04-28T04:25:02.890Z,100216.72
2019-04-28T04:27:33.306Z,100223.33
2019-04-28T04:30:04.059Z,100218.88
2019-04-28T04:32:34.512Z,100226.28
2019-04-28T04:35:05.960Z,100223.56
2019-04-28T04:37:36.388Z,100220.30
2019-04-28T04:40:07.157Z,100213.16
2019-04-28T04:42:40.005Z,100212.92
2019-04-28T04:45:10.538Z,100215.95
2019-04-28T04:47:41.169Z,100217.87
2019-04-28T04:50:13.190Z,100210.16
2019-04-28T04:52:43.737Z,100222.83
2019-04-28T04:55:14.314Z,100218.96
2019-04-28T04:57:44.746Z,100217.85
2019-04-28T05:00:33.328Z,100215.91
2019-04-28T05:03:05.352Z,100227.78
2019-04-28T05:05:43.222Z,100229.95
2019-04-28T05:08:15.519Z,100225.27
2019-04-28T05:10:45.865Z,100220.61
2019-04-28T05:13:16.298Z,100223.91
2019-04-28T05:15:46.806Z,100223.67
2019-04-28T05:18:17.243Z,100228.33
2019-04-28T05:20:47.723Z,100227.78
2019-04-28T05:23:19.733Z,100224.21
2019-04-28T05:25:50.235Z,100228.05
2019-04-28T05:28:20.693Z,100222.28
2019-04-28T05:30:51.176Z,100224.77
2019-04-28T05:33:32.065Z,100225.31
2019-04-28T05:36:02.870Z,100223.37
2019-04-28T05:38:32.020Z,100228.88
2019-04-28T05:41:02.973Z,100233.52
2019-04-28T05:43:33.339Z,100238.25
2019-04-28T05:46:03.796Z,100239.07
2019-04-28T05:48:44.968Z,100235.21
2019-04-28T05:51:16.998Z,100235.44
2019-04-28T05:53:53.796Z,100229.92
2019-04-28T05:56:29.578Z,100232.41
2019-04-28T05:59:01.678Z,100233.77
2019-04-28T06:01:36.681Z,100235.13
2019-04-28T06:04:07.121Z,100234.00
2019-04-28T06:06:40.496Z,100238.13
2019-04-28T06:09:12.579Z,100232.09
2019-04-28T06:11:43.081Z,100237.63
2019-04-28T06:14:13.543Z,100242.52
2019-04-28T06:16:44.160Z,100234.83
2019-04-28T06:19:14.608Z,100224.66
2019-04-28T06:21:44.995Z,100224.95
2019-04-28T06:24:15.365Z,100235.09
2019-04-28T06:26:45.852Z,100227.39
2019-04-28T06:29:16.295Z,100227.19
2019-04-28T06:31:46.760Z,100226.64
2019-04-28T06:34:17.181Z,100234.06
2019-04-28T06:36:47.737Z,100231.58
2019-04-28T06:39:18.083Z,100235.65
2019-04-28T06:41:48.588Z,100230.99
2019-04-28T06:44:19.021Z,100240.29
2019-04-28T06:46:49.504Z,100237.74
2019-04-28T06:49:19.952Z,100238.27
2019-04-28T06:51:50.448Z,100229.47
2019-04-28T06:54:20.986Z,100233.73
2019-04-28T06:56:51.583Z,100231.97
2019-04-28T06:59:22.041Z,100227.22
2019-04-28T07:01:52.524Z,100227.39
2019-04-28T07:04:22.985Z,100220.50
2019-04-28T07:06:53.427Z,100213.67
2019-04-28T07:09:23.950Z,100208.75
2019-04-28T07:11:54.425Z,100196.55
2019-04-28T07:14:24.975Z,100204.78
2019-04-28T07:16:55.476Z,100207.34
2019-04-28T07:19:25.904Z,100199.98
2019-04-28T07:21:57.953Z,100205.28
2019-04-28T07:24:28.513Z,100196.58
2019-04-28T07:26:58.994Z,100202.42
2019-04-28T07:29:29.460Z,100206.69
2019-04-28T07:32:00.141Z,100205.23
2019-04-28T07:34:30.668Z,100214.91
2019-04-28T07:37:01.234Z,100211.89
2019-04-28T07:39:31.658Z,100217.48
2019-04-28T07:42:02.145Z,100226.89
2019-04-28T07:44:32.582Z,100227.25
2019-04-28T07:47:03.062Z,100223.92
2019-04-28T07:49:33.462Z,100214.84
2019-04-28T07:52:14.266Z,100212.38
2019-04-28T07:54:44.726Z,100209.33
2019-04-28T07:57:15.180Z,100202.95
2019-04-28T07:59:45.597Z,100209.50
2019-04-28T08:02:16.096Z,100208.33
2019-04-28T08:04:46.542Z,100210.46
2019-04-28T08:07:16.996Z,100207.23
2019-04-28T08:09:47.520Z,100202.98
2019-04-28T08:12:17.981Z,100202.64
2019-04-28T08:14:48.420Z,100191.02
2019-04-28T08:17:18.900Z,100195.22
2019-04-28T08:19:49.313Z,100190.66
2019-04-28T08:22:19.787Z,100194.52
2019-04-28T08:24:50.236Z,100187.20
2019-04-28T08:27:20.673Z,100186.70
2019-04-28T08:29:58.275Z,100191.14
2019-04-28T08:32:30.830Z,100193.97
2019-04-28T08:35:01.257Z,100192.37
2019-04-28T08:37:31.820Z,100195.65
2019-04-28T08:40:02.238Z,100193.41
2019-04-28T08:42:32.716Z,100188.39
2019-04-28T08:45:03.148Z,100191.32
2019-04-28T08:47:33.625Z,100192.37
2019-04-28T08:50:04.340Z,100186.39
2019-04-28T08:52:34.798Z,100190.48
2019-04-28T08:55:06.519Z,100185.84
2019-04-28T08:57:36.981Z,100178.57
2019-04-28T09:00:10.443Z,100172.48
2019-04-28T09:02:40.962Z,100178.93
2019-04-28T09:05:11.502Z,100174.94
2019-04-28T09:07:41.974Z,100177.52
2019-04-28T09:10:12.493Z,100175.73
2019-04-28T09:12:42.985Z,100171.39
2019-04-28T09:15:13.335Z,100160.72
2019-04-28T09:17:44.357Z,100174.62
2019-04-28T09:20:14.792Z,100169.77
2019-04-28T09:22:45.394Z,100164.38
2019-04-28T09:25:15.856Z,100164.02
2019-04-28T09:27:46.309Z,100169.86
2019-04-28T09:30:16.844Z,100157.36
2019-04-28T09:32:47.528Z,100161.68
2019-04-28T09:35:17.940Z,100166.63
2019-04-28T09:37:51.026Z,100170.21
2019-04-28T09:40:21.440Z,100170.34
2019-04-28T09:42:56.185Z,100175.09
2019-04-28T09:45:33.929Z,100177.73
2019-04-28T09:48:04.431Z,100169.08
2019-04-28T09:50:34.843Z,100174.61
2019-04-28T09:53:05.362Z,100169.19
2019-04-28T09:55:35.809Z,100175.97
2019-04-28T09:58:06.273Z,100167.80
2019-04-28T10:00:38.375Z,100174.77
2019-04-28T10:03:08.836Z,100182.75
2019-04-28T10:05:39.284Z,100175.25
2019-04-28T10:08:09.754Z,100181.87
2019-04-28T10:10:40.105Z,100179.48
2019-04-28T10:13:10.577Z,100180.45
2019-04-28T10:15:41.026Z,100179.13
2019-04-28T10:18:11.516Z,100185.18
2019-04-28T10:20:41.890Z,100183.25
2019-04-28T10:23:12.413Z,100187.69
2019-04-28T10:25:42.843Z,100181.72
2019-04-28T10:28:13.275Z,100185.84
2019-04-28T10:30:43.700Z,100177.05
2019-04-28T10:33:14.184Z,100177.05
2019-04-28T10:35:44.616Z,100176.55
2019-04-28T10:38:15.500Z,100177.94
2019-04-28T10:40:50.471Z,100172.63
2019-04-28T10:43:20.945Z,100173.47
2019-04-28T10:45:51.866Z,100167.07
2019-04-28T10:48:22.334Z,100168.75
2019-04-28T10:50:52.762Z,100171.33
2019-04-28T10:53:23.218Z,100160.98
2019-04-28T10:55:53.646Z,100158.42
2019-04-28T10:58:24.144Z,100165.87
2019-04-28T11:00:54.550Z,100165.20
2019-04-28T11:03:25.038Z,100157.12
2019-04-28T11:05:55.474Z,100155.69
2019-04-28T11:08:33.324Z,100154.39
2019-04-28T11:11:05.316Z,100158.36
2019-04-28T11:13:35.738Z,100155.87
2019-04-28T11:16:06.297Z,100159.73
2019-04-28T11:18:36.793Z,100165.82
2019-04-28T11:21:07.221Z,100173.92
2019-04-28T11:23:37.709Z,100177.09
2019-04-28T11:26:08.160Z,100178.02
2019-04-28T11:28:38.653Z,100171.72
2019-04-28T11:31:09.095Z,100169.12
2019-04-28T11:33:44.112Z,100167.91
2019-04-28T11:36:16.347Z,100160.60
2019-04-28T11:38:47.252Z,100156.70
2019-04-28T11:41:17.688Z,100157.72
2019-04-28T11:43:48.251Z,100154.45
2019-04-28T11:46:20.290Z,100148.14
2019-04-28T11:48:50.793Z,100146.13
2019-04-28T11:51:21.267Z,100144.63
2019-04-28T11:53:51.825Z,100144.59
2019-04-28T11:56:22.365Z,100134.08
2019-04-28T11:58:52.851Z,100139.28
2019-04-28T12:01:23.743Z,100132.20
2019-04-28T12:03:55.883Z,100133.16
2019-04-28T12:06:26.372Z,100123.20
2019-04-28T12:08:58.426Z,100124.27
2019-04-28T12:11:36.225Z,100115.20
2019-04-28T12:14:11.186Z,100115.48
2019-04-28T12:16:55.204Z,100108.36
2019-04-28T12:19:43.348Z,100110.43
2019-04-28T12:22:13.782Z,100102.33
2019-04-28T12:24:44.591Z,100096.77
2019-04-28T12:27:15.031Z,100095.27
2019-04-28T12:29:45.505Z,100090.80
2019-04-28T12:32:15.934Z,100088.41
2019-04-28T12:34:46.526Z,100084.98
2019-04-28T12:37:16.940Z,100082.53
2019-04-28T12:39:47.522Z,100088.73
2019-04-28T12:42:17.867Z,100087.94
2019-04-28T12:44:48.292Z,100092.11
2019-04-28T12:47:18.718Z,100087.33
2019-04-28T12:50:06.708Z,100088.29
2019-04-28T12:52:37.157Z,100096.54
2019-04-28T12:55:07.736Z,100095.41
2019-04-28T12:57:38.156Z,100105.70
2019-04-28T13:00:28.192Z,100098.86
2019-04-28T13:03:18.275Z,100100.48
2019-04-28T13:06:00.874Z,100099.05
2019-04-28T13:08:22.501Z,100095.50
2019-04-28T13:10:52.970Z,100086.58
2019-04-28T13:13:23.429Z,100084.66
2019-04-28T13:15:53.935Z,100083.15
2019-04-28T13:18:24.382Z,100083.99
2019-04-28T13:20:54.896Z,100083.39
2019-04-28T13:23:25.348Z,100070.87
2019-04-28T13:25:55.837Z,100070.83
2019-04-28T13:28:26.264Z,100067.52
2019-04-28T13:30:56.760Z,100068.98
2019-04-28T13:33:27.160Z,100068.81
2019-04-28T13:35:57.645Z,100061.89
2019-04-28T13:38:28.435Z,100055.45
2019-04-28T13:40:58.987Z,100052.00
2019-04-28T13:43:29.420Z,100051.30
2019-04-28T13:45:59.914Z,100043.59
2019-04-28T13:48:30.321Z,100044.75
2019-04-28T13:51:00.730Z,100042.61
2019-04-28T13:53:31.184Z,100033.72
2019-04-28T13:56:03.081Z,100034.38
2019-04-28T13:58:34.493Z,100040.09
2019-04-28T14:01:24.600Z,100041.56
2019-04-28T14:04:12.727Z,100045.58
2019-04-28T14:06:44.765Z,100044.23
2019-04-28T14:09:16.309Z,100040.05
2019-04-28T14:11:46.922Z,100042.89
2019-04-28T14:14:17.456Z,100038.34
2019-04-28T14:16:47.953Z,100038.27
2019-04-28T14:19:18.367Z,100040.28
2019-04-28T14:21:48.760Z,100036.73
2019-04-28T14:24:19.374Z,100037.73
2019-04-28T14:26:49.884Z,100033.30
2019-04-28T14:29:20.219Z,100028.28
2019-04-28T14:31:50.683Z,100032.39
2019-04-28T14:34:21.263Z,100031.85
2019-04-28T14:36:51.731Z,100030.30
2019-04-28T14:39:22.172Z,100033.00
2019-04-28T14:41:52.827Z,100031.75
2019-04-28T14:44:23.164Z,100032.56
2019-04-28T14:46:53.622Z,100027.14
2019-04-28T14:49:24.034Z,100032.12
2019-04-28T14:51:54.503Z,100024.38
2019-04-28T14:54:25.046Z,100019.24
2019-04-28T14:56:55.590Z,100026.67
2019-04-28T14:59:25.938Z,100022.12
2019-04-28T15:02:13.922Z,100029.22
2019-04-28T15:05:01.063Z,100021.05
2019-04-28T15:07:50.965Z,100017.50
2019-04-28T15:10:28.484Z,100013.49
2019-04-28T15:12:58.984Z,100014.56
2019-04-28T15:15:29.474Z,100013.99
2019-04-28T15:17:59.933Z,100007.97
2019-04-28T15:20:30.883Z,100004.31
2019-04-28T15:23:01.342Z,100000.27
2019-04-28T15:25:31.798Z,100003.70
2019-04-28T15:28:02.278Z,100001.02
2019-04-28T15:30:32.727Z,99995.06
2019-04-28T15:33:03.206Z,99999.08
2019-04-28T15:35:33.621Z,99995.02
2019-04-28T15:38:04.130Z,100000.70
2019-04-28T15:40:34.779Z,99990.47
2019-04-28T15:43:05.362Z,99990.12
2019-04-28T15:45:35.818Z,99994.13
2019-04-28T15:48:07.104Z,99998.67
2019-04-28T15:50:37.521Z,99990.31
2019-04-28T15:53:08.004Z,99994.89
2019-04-28T15:55:40.320Z,99985.23
2019-04-28T15:58:32.329Z,99990.31
2019-04-28T16:01:02.935Z,99982.36
2019-04-28T16:03:33.474Z,99987.93
2019-04-28T16:06:04.212Z,99985.00
2019-04-28T16:08:34.714Z,99984.11
2019-04-28T16:11:05.140Z,99982.06
2019-04-28T16:13:53.125Z,99983.14
2019-04-28T16:16:40.090Z,99981.34
2019-04-28T16:19:10.570Z,99987.77
2019-04-28T16:21:40.987Z,99988.19
2019-04-28T16:24:28.233Z,99989.03
2019-04-28T16:26:58.592Z,99985.00
2019-04-28T16:29:46.065Z,99990.05
2019-04-28T16:32:16.513Z,99992.14
2019-04-28T16:34:46.993Z,99995.03
2019-04-28T16:37:17.418Z,100001.83
2019-04-28T16:40:09.341Z,99993.27
2019-04-28T16:43:00.381Z,100000.56
2019-04-28T16:45:35.439Z,100013.47
2019-04-28T16:48:23.581Z,100012.22
2019-04-28T16:51:14.408Z,100016.17
2019-04-28T16:53:43.347Z,100019.36
2019-04-28T16:56:49.261Z,100025.67
2019-04-28T16:59:21.281Z,100029.02
2019-04-28T17:02:19.219Z,100029.12
2019-04-28T17:05:08.410Z,100028.96
2019-04-28T17:07:55.982Z,100037.00
2019-04-28T17:10:26.501Z,100042.22
2019-04-28T17:13:13.744Z,100043.89
2019-04-28T17:16:00.960Z,100039.30
2019-04-28T17:18:48.954Z,100043.19
2019-04-28T17:21:19.624Z,100049.03
2019-04-28T17:23:50.115Z,100047.69
2019-04-28T17:26:37.379Z,100051.83
2019-04-28T17:29:25.333Z,100054.09
2019-04-28T17:32:12.459Z,100062.65
2019-04-28T17:34:59.838Z,100057.98
2019-04-28T17:37:47.527Z,100068.44
2019-04-28T17:40:35.142Z,100071.44
2019-04-28T17:43:05.886Z,100071.73
2019-04-28T17:45:53.517Z,100078.66
2019-04-28T17:48:31.321Z,100086.64
2019-04-28T17:51:19.054Z,100081.97
2019-04-28T17:54:06.544Z,100091.08
2019-04-28T17:56:54.065Z,100092.18
2019-04-28T17:59:41.686Z,100103.20
2019-04-28T18:02:31.266Z,100101.03
2019-04-28T18:05:09.385Z,100103.53
2019-04-28T18:07:58.465Z,100112.10
2019-04-28T18:10:28.916Z,100106.03
2019-04-28T18:13:00.833Z,100116.77
2019-04-28T18:15:55.975Z,100120.36
2019-04-28T18:18:37.113Z,100123.62
2019-04-28T18:21:07.553Z,100122.53
2019-04-28T18:23:55.358Z,100124.77
2019-04-28T18:26:42.596Z,100124.80
2019-04-28T18:29:29.805Z,100129.48
2019-04-28T18:32:01.820Z,100132.78
2019-04-28T18:34:53.705Z,100130.33
2019-04-28T18:37:42.013Z,100132.27
2019-04-28T18:40:22.796Z,100128.41
2019-04-28T18:43:11.904Z,100123.46
2019-04-28T18:45:59.249Z,100126.44
2019-04-28T18:48:46.544Z,100123.72
2019-04-28T18:51:34.075Z,100128.66
2019-04-28T18:54:21.617Z,100123.45
2019-04-28T18:56:52.113Z,100124.00
2019-04-28T18:59:39.584Z,100119.86
2019-04-28T19:02:45.882Z,100122.37
2019-04-28T19:05:35.006Z,100121.55
2019-04-28T19:08:29.947Z,100126.23
2019-04-28T19:11:18.875Z,100119.63
2019-04-28T19:14:07.799Z,100116.02
2019-04-28T19:16:55.870Z,100119.36
2019-04-28T19:19:27.930Z,100116.89
2019-04-28T19:21:58.359Z,100120.73
2019-04-28T19:24:29.614Z,100114.41
2019-04-28T19:27:00.011Z,100116.56
2019-04-28T19:29:30.604Z,100112.43
2019-04-28T19:32:01.100Z,100120.12
2019-04-28T19:34:31.598Z,100119.28
2019-04-28T19:37:02.162Z,100119.83
2019-04-28T19:39:32.773Z,100118.70
2019-04-28T19:42:03.355Z,100120.31
2019-04-28T19:44:34.013Z,100124.98
2019-04-28T19:47:04.557Z,100130.50
2019-04-28T19:49:35.112Z,100127.43
2019-04-28T19:52:05.641Z,100128.81
2019-04-28T19:54:37.669Z,100132.36
2019-04-28T19:57:21.803Z,100128.23
2019-04-28T20:00:10.105Z,100128.76
2019-04-28T20:02:40.696Z,100130.67
2019-04-28T20:05:11.290Z,100131.80
2019-04-28T20:07:41.804Z,100133.70
2019-04-28T20:10:12.376Z,100139.78
2019-04-28T20:12:42.867Z,100135.92
2019-04-28T20:15:13.481Z,100145.86
2019-04-28T20:17:44.080Z,100141.75
2019-04-28T20:20:14.590Z,100140.65
2019-04-28T20:22:45.048Z,100149.76
2019-04-28T20:25:15.526Z,100148.40
2019-04-28T20:27:46.197Z,100149.82
2019-04-28T20:30:16.676Z,100150.94
2019-04-28T20:32:47.274Z,100151.76
2019-04-28T20:35:19.327Z,100152.86
2019-04-28T20:37:57.380Z,100155.08
2019-04-28T20:40:29.475Z,100158.09
2019-04-28T20:43:04.580Z,100161.70
2019-04-28T20:45:35.109Z,100159.48
2019-04-28T20:48:05.598Z,100158.40
2019-04-28T20:50:36.137Z,100155.67
2019-04-28T20:53:06.678Z,100157.86
2019-04-28T20:55:37.180Z,100155.11
2019-04-28T20:58:07.723Z,100154.00
2019-04-28T21:00:38.230Z,100159.80
2019-04-28T21:03:08.707Z,100158.13
2019-04-28T21:05:39.205Z,100163.92
2019-04-28T21:08:09.652Z,100161.98
2019-04-28T21:10:40.081Z,100167.52
2019-04-28T21:13:10.530Z,100165.32
2019-04-28T21:15:41.146Z,100166.97
2019-04-28T21:18:11.616Z,100173.03
2019-04-28T21:20:42.086Z,100173.29
2019-04-28T21:23:12.516Z,100176.05
2019-04-28T21:25:42.966Z,100176.86
2019-04-28T21:28:13.310Z,100174.95
2019-04-28T21:30:43.763Z,100173.31
2019-04-28T21:33:14.222Z,100179.88
2019-04-28T21:35:44.703Z,100177.44
2019-04-28T21:38:15.143Z,100178.25
2019-04-28T21:40:45.786Z,100182.38
2019-04-28T21:43:20.766Z,100179.89
2019-04-28T21:45:55.493Z,100177.98
2019-04-28T21:48:33.516Z,100181.00
2019-04-28T21:51:04.179Z,100184.58
2019-04-28T21:53:34.632Z,100186.23
2019-04-28T21:56:05.290Z,100185.91
2019-04-28T21:58:35.741Z,100181.79
2019-04-28T22:01:06.724Z,100187.28
2019-04-28T22:03:37.162Z,100186.17
2019-04-28T22:06:07.650Z,100184.53
2019-04-28T22:08:38.082Z,100183.14
2019-04-28T22:11:08.674Z,100185.87
2019-04-28T22:13:39.043Z,100183.13
2019-04-28T22:16:09.540Z,100179.83
2019-04-28T22:18:39.970Z,100172.39
2019-04-28T22:21:10.422Z,100169.11
2019-04-28T22:23:42.465Z,100166.63
2019-04-28T22:26:14.522Z,100165.24
2019-04-28T22:28:44.966Z,100160.84
2019-04-28T22:31:16.426Z,100161.67
2019-04-28T22:33:46.896Z,100159.48
2019-04-28T22:36:17.377Z,100157.84
2019-04-28T22:38:47.815Z,100162.78
2019-04-28T22:41:18.383Z,100158.66
2019-04-28T22:43:48.907Z,100158.36
2019-04-28T22:46:19.405Z,100156.73
2019-04-28T22:48:49.839Z,100150.66
2019-04-28T22:51:20.509Z,100157.53
2019-04-28T22:53:50.969Z,100152.85
2019-04-28T22:59:19.240Z,100158.64
2019-04-28T23:02:07.592Z,100156.16
2019-04-28T23:04:45.501Z,100157.55
2019-04-28T23:07:15.936Z,100149.86
2019-04-28T23:09:46.445Z,100150.67
2019-04-28T23:12:16.898Z,100142.39
2019-04-28T23:14:47.436Z,100149.28
2019-04-28T23:17:19.255Z,100143.48
2019-04-28T23:19:49.661Z,100144.02
2019-04-28T23:22:21.672Z,100143.45
2019-04-28T23:24:52.181Z,100138.77
2019-04-28T23:27:22.654Z,100140.94
2019-04-28T23:29:53.137Z,100142.06
2019-04-28T23:32:23.575Z,100136.84
2019-04-28T23:34:54.059Z,100144.23
2019-04-28T23:37:24.510Z,100145.03
2019-04-28T23:39:55.009Z,100153.28
2019-04-28T23:42:27.026Z,100152.98
2019-04-28T23:44:57.533Z,100150.77
2019-04-28T23:47:28.078Z,100157.33
2019-04-28T23:49:58.497Z,100155.63
2019-04-28T23:52:33.390Z,100150.89
2019-04-28T23:55:08.117Z,100147.06
2019-04-28T23:57:38.604Z,100155.84
